WEATHER/FLIGHT PLANNING

Hattiesburg Radar

 

 

 

 

Weather Links

Flight Planning Links

 

METAR

2019/07/21 21:53 KHBG 212153Z AUTO 24005KT 10SM -RA FEW023 SCT046 BKN090 26/23 A3003 RMK AO2 LTG DSNT N AND NW RAB44 SLP165 P0000 T02610228

TAF

2019/07/21 20:28 TAF AMD KHBG 212026Z 2120/2218 20016G24KT P6SM VCTS FEW050CB SCT100 FM212300 VRB03KT P6SM BKN040 FM221500 27004KT P6SM VCTS BKN040CB